Terminal Aerodrome Forecast
Issued by NWS

Home | Current Version | Previous Version | Text Only | Print | Product List | Glossary On
Versions: 1 2 3 4 5 6 7 8 9 10 11 12 13 14 15 16
694
FTUS44 KLIX 281729
TAFMSY
TAF
KMSY 281729Z 2818/2918 VRB05KT P6SM SCT025 BKN090
      TEMPO 2820/2823 VRB30KT 2SM TSRA BKN025CB
     FM290800 21005KT P6SM BKN018
     FM291500 20008KT P6SM BKN025 PROB30 2915/2918 3SM -TSRA
      BKN018CB=

USA.gov is the U.S. government's official web portal to all federal, state and local government web resources and services.